createdAt,value
2018-12-02T00:01:54.151Z,99.50
2018-12-02T00:04:22.795Z,101.42
2018-12-02T00:06:51.455Z,104.40
2018-12-02T00:09:24.357Z,103.87
2018-12-02T00:11:54.081Z,104.15
2018-12-02T00:14:23.154Z,100.58
2018-12-02T00:16:52.184Z,102.42
2018-12-02T00:19:21.970Z,97.62
2018-12-02T00:21:50.884Z,98.82
2018-12-02T00:24:22.587Z,97.62
2018-12-02T00:27:06.648Z,96.00
2018-12-02T00:29:36.450Z,94.55
2018-12-02T00:32:07.325Z,96.57
2018-12-02T00:34:37.195Z,93.78
2018-12-02T00:37:06.266Z,91.28
2018-12-02T00:39:35.004Z,92.60
2018-12-02T00:42:03.645Z,94.90
2018-12-02T00:44:32.323Z,91.85
2018-12-02T00:47:00.978Z,90.92
2018-12-02T00:49:29.586Z,91.67
2018-12-02T00:51:58.313Z,92.35
2018-12-02T00:54:26.921Z,92.70
2018-12-02T00:56:55.554Z,93.92
2018-12-02T00:59:24.153Z,93.27
2018-12-02T01:01:59.040Z,92.42
2018-12-02T01:04:27.660Z,93.45
2018-12-02T01:06:56.349Z,94.07
2018-12-02T01:09:25.010Z,95.85
2018-12-02T01:11:53.665Z,88.92
2018-12-02T01:14:22.334Z,89.00
2018-12-02T01:16:50.943Z,90.62
2018-12-02T01:19:19.586Z,91.12
2018-12-02T01:21:48.288Z,89.52
2018-12-02T01:24:16.972Z,87.85
2018-12-02T01:26:45.530Z,86.35
2018-12-02T01:29:14.159Z,86.15
2018-12-02T01:31:42.785Z,88.25
2018-12-02T01:34:11.453Z,83.25
2018-12-02T01:36:40.168Z,89.05
2018-12-02T01:39:09.234Z,91.28
2018-12-02T01:41:37.881Z,90.35
2018-12-02T01:44:06.583Z,88.87
2018-12-02T01:46:35.262Z,87.40
2018-12-02T01:49:04.068Z,91.02
2018-12-02T01:51:32.743Z,96.87
2018-12-02T01:54:01.375Z,92.50
2018-12-02T01:56:29.944Z,94.67
2018-12-02T01:58:58.539Z,96.28
2018-12-02T02:01:27.284Z,98.75
2018-12-02T02:03:55.972Z,87.00
2018-12-02T02:06:24.654Z,93.45
2018-12-02T02:08:53.301Z,99.95
2018-12-02T02:11:21.998Z,89.85
2018-12-02T02:13:50.617Z,96.65
2018-12-02T02:16:19.241Z,96.75
2018-12-02T02:18:47.913Z,93.20
2018-12-02T02:21:16.613Z,91.67
2018-12-02T02:23:45.182Z,97.37
2018-12-02T02:26:13.834Z,96.63
2018-12-02T02:28:42.449Z,97.57
2018-12-02T02:31:11.065Z,96.10
2018-12-02T02:33:39.672Z,97.08
2018-12-02T02:36:08.654Z,97.47
2018-12-02T02:38:37.300Z,106.58
2018-12-02T02:41:06.030Z,99.17
2018-12-02T02:43:34.712Z,112.88
2018-12-02T02:46:03.394Z,106.72
2018-12-02T02:48:32.074Z,104.65
2018-12-02T02:51:00.758Z,105.63
2018-12-02T02:53:29.447Z,107.80
2018-12-02T02:55:58.102Z,117.15
2018-12-02T02:58:26.745Z,109.85
2018-12-02T03:00:55.444Z,106.37
2018-12-02T03:03:24.053Z,103.27
2018-12-02T03:05:52.715Z,109.15
2018-12-02T03:08:21.374Z,110.83
2018-12-02T03:10:50.030Z,121.30
2018-12-02T03:13:18.743Z,125.45
2018-12-02T03:15:47.364Z,124.40
2018-12-02T03:18:15.984Z,115.65
2018-12-02T03:20:44.681Z,115.17
2018-12-02T03:23:13.591Z,115.10
2018-12-02T03:25:42.242Z,111.57
2018-12-02T03:28:10.852Z,112.47
2018-12-02T03:30:39.510Z,115.12
2018-12-02T03:33:08.492Z,115.90
2018-12-02T03:35:37.125Z,112.88
2018-12-02T03:38:05.961Z,115.62
2018-12-02T03:40:34.698Z,118.57
2018-12-02T03:43:03.350Z,119.47
2018-12-02T03:45:31.961Z,116.08
2018-12-02T03:48:00.633Z,113.57
2018-12-02T03:50:29.253Z,109.63
2018-12-02T03:52:57.893Z,101.80
2018-12-02T03:55:26.537Z,105.22
2018-12-02T03:57:55.149Z,96.85
2018-12-02T04:00:25.071Z,95.75
2018-12-02T04:02:54.472Z,85.20
2018-12-02T04:05:24.205Z,89.40
2018-12-02T04:07:53.101Z,85.35
2018-12-02T04:10:22.019Z,84.20
2018-12-02T04:12:51.380Z,82.62
2018-12-02T04:15:21.172Z,82.45
2018-12-02T04:17:49.855Z,80.38
2018-12-02T04:20:19.117Z,84.58
2018-12-02T04:22:48.537Z,79.87
2018-12-02T04:25:20.885Z,72.82
2018-12-02T04:27:49.528Z,74.60
2018-12-02T04:30:20.729Z,74.72
2018-12-02T04:32:50.297Z,74.72
2018-12-02T04:35:19.863Z,77.30
2018-12-02T04:37:48.454Z,83.40
2018-12-02T04:40:17.097Z,82.92
2018-12-02T04:42:45.730Z,84.47
2018-12-02T04:45:15.976Z,84.10
2018-12-02T04:47:44.768Z,101.10
2018-12-02T04:50:19.513Z,128.00
2018-12-02T04:52:48.142Z,137.55
2018-12-02T04:55:16.852Z,127.85
2018-12-02T04:57:45.543Z,127.67
2018-12-02T05:00:16.927Z,126.80
2018-12-02T05:02:46.754Z,116.75
2018-12-02T05:05:18.473Z,109.42
2018-12-02T05:07:47.104Z,117.03
2018-12-02T05:10:17.644Z,143.20
2018-12-02T05:12:46.356Z,136.85
2018-12-02T05:15:17.786Z,135.32
2018-12-02T05:17:46.430Z,140.90
2018-12-02T05:20:17.625Z,135.48
2018-12-02T05:22:46.288Z,127.07
2018-12-02T05:25:17.973Z,136.00
2018-12-02T05:27:44.646Z,114.80
2018-12-02T05:30:22.576Z,109.48
2018-12-02T05:32:52.958Z,101.90
2018-12-02T05:35:21.714Z,101.72
2018-12-02T05:37:50.381Z,104.20
2018-12-02T05:40:23.743Z,97.90
2018-12-02T05:42:53.336Z,71.28
2018-12-02T05:45:22.414Z,56.58
2018-12-02T05:47:51.065Z,55.00
2018-12-02T05:50:21.766Z,57.67
2018-12-02T05:52:51.528Z,56.92
2018-12-02T05:55:22.441Z,57.15
2018-12-02T05:57:51.229Z,56.77
2018-12-02T06:00:21.647Z,59.10
2018-12-02T06:02:50.318Z,62.73
2018-12-02T06:05:19.007Z,57.45
2018-12-02T06:07:47.670Z,60.10
2018-12-02T06:10:19.020Z,57.93
2018-12-02T06:12:47.787Z,59.65
2018-12-02T06:15:17.333Z,63.45
2018-12-02T06:17:45.936Z,61.30
2018-12-02T06:20:22.277Z,61.83
2018-12-02T06:22:51.794Z,63.45
2018-12-02T06:25:20.503Z,63.33
2018-12-02T06:27:49.243Z,64.92
2018-12-02T06:30:20.707Z,65.20
2018-12-02T06:32:51.556Z,69.42
2018-12-02T06:35:20.193Z,65.52
2018-12-02T06:37:48.841Z,63.23
2018-12-02T06:40:20.546Z,60.52
2018-12-02T06:42:49.341Z,59.73
2018-12-02T06:45:18.387Z,62.88
2018-12-02T06:47:47.106Z,64.37
2018-12-02T06:50:22.577Z,85.05
2018-12-02T06:52:51.439Z,80.75
2018-12-02T06:55:39.201Z,96.45
2018-12-02T06:59:20.349Z,100.02
2018-12-02T07:01:58.482Z,90.87
2018-12-02T07:04:37.393Z,80.37
2018-12-02T07:07:06.629Z,70.97
2018-12-02T07:09:36.003Z,75.27
2018-12-02T07:12:05.485Z,76.13
2018-12-02T07:14:34.171Z,75.90
2018-12-02T07:17:02.842Z,79.87
2018-12-02T07:19:37.842Z,78.20
2018-12-02T07:22:16.180Z,84.40
2018-12-02T07:24:50.090Z,80.07
2018-12-02T07:27:19.174Z,80.97
2018-12-02T07:29:47.805Z,125.23
2018-12-02T07:32:16.481Z,129.50
2018-12-02T07:34:45.109Z,134.43
2018-12-02T07:37:17.199Z,120.17
2018-12-02T07:39:57.025Z,113.47
2018-12-02T07:42:25.692Z,121.00
2018-12-02T07:44:54.327Z,137.60
2018-12-02T07:47:22.944Z,137.40
2018-12-02T07:49:51.641Z,143.90
2018-12-02T07:52:20.335Z,139.83
2018-12-02T07:54:48.972Z,145.13
2018-12-02T07:57:17.676Z,140.20
2018-12-02T07:59:46.356Z,136.13
2018-12-02T08:02:15.019Z,93.00
2018-12-02T08:04:43.661Z,101.30
2018-12-02T08:07:12.330Z,149.67
2018-12-02T08:09:40.962Z,127.77
2018-12-02T08:12:09.602Z,158.40
2018-12-02T08:14:38.245Z,140.97
2018-12-02T08:17:07.044Z,176.00
2018-12-02T08:19:35.709Z,164.03
2018-12-02T08:22:04.448Z,164.87
2018-12-02T08:24:33.143Z,171.10
2018-12-02T08:27:01.797Z,162.70
2018-12-02T08:29:30.475Z,162.67
2018-12-02T08:31:59.182Z,163.40
2018-12-02T08:34:27.817Z,161.67
2018-12-02T08:36:56.859Z,160.53
2018-12-02T08:39:25.513Z,157.83
2018-12-02T08:41:54.176Z,156.70
2018-12-02T08:44:22.796Z,157.50
2018-12-02T08:46:51.417Z,162.73
2018-12-02T08:49:20.184Z,165.17
2018-12-02T08:51:48.872Z,163.63
2018-12-02T08:54:17.662Z,151.83
2018-12-02T08:56:46.295Z,153.97
2018-12-02T08:59:14.945Z,155.13
2018-12-02T09:01:43.618Z,143.07
2018-12-02T09:04:12.268Z,149.77
2018-12-02T09:06:40.933Z,145.87
2018-12-02T09:09:10.699Z,142.00
2018-12-02T09:11:39.300Z,138.97
2018-12-02T09:14:07.941Z,140.53
2018-12-02T09:16:36.662Z,140.57
2018-12-02T09:19:05.910Z,139.77
2018-12-02T09:21:34.556Z,133.17
2018-12-02T09:24:03.205Z,128.77
2018-12-02T09:26:31.907Z,126.00
2018-12-02T09:29:00.576Z,132.87
2018-12-02T09:31:29.184Z,135.03
2018-12-02T09:33:57.869Z,132.90
2018-12-02T09:36:26.508Z,139.67
2018-12-02T09:38:55.295Z,136.37
2018-12-02T09:41:23.964Z,132.90
2018-12-02T09:43:52.691Z,129.00
2018-12-02T09:46:21.284Z,137.90
2018-12-02T09:48:49.966Z,136.97
2018-12-02T09:51:18.625Z,138.90
2018-12-02T09:53:47.277Z,135.40
2018-12-02T09:56:15.948Z,133.63
2018-12-02T09:58:44.562Z,129.40
2018-12-02T10:01:13.528Z,126.53
2018-12-02T10:03:42.230Z,119.40
2018-12-02T10:06:10.922Z,110.67
2018-12-02T10:08:39.549Z,114.87
2018-12-02T10:11:08.332Z,134.37
2018-12-02T10:13:36.920Z,112.57
2018-12-02T10:16:05.637Z,111.67
2018-12-02T10:18:35.213Z,108.50
2018-12-02T10:21:04.021Z,109.23
2018-12-02T10:23:32.766Z,123.00
2018-12-02T10:26:01.402Z,108.07
2018-12-02T10:28:30.123Z,116.50
2018-12-02T10:30:58.742Z,126.87
2018-12-02T10:33:27.462Z,139.07
2018-12-02T10:35:56.190Z,147.67
2018-12-02T10:38:27.585Z,144.33
2018-12-02T10:40:56.751Z,146.60
2018-12-02T10:43:25.427Z,136.57
2018-12-02T10:45:54.152Z,135.60
2018-12-02T10:48:40.666Z,123.90
2018-12-02T10:51:10.313Z,117.80
2018-12-02T10:53:39.008Z,129.13
2018-12-02T10:56:07.863Z,132.70
2018-12-02T10:58:36.687Z,126.70
2018-12-02T11:01:11.788Z,121.10
2018-12-02T11:03:40.458Z,122.13
2018-12-02T11:06:09.059Z,116.40
2018-12-02T11:08:37.691Z,116.03
2018-12-02T11:11:06.772Z,117.17
2018-12-02T11:13:35.459Z,113.53
2018-12-02T11:16:04.109Z,116.63
2018-12-02T11:18:32.758Z,114.43
2018-12-02T11:21:01.438Z,112.93
2018-12-02T11:23:30.072Z,114.10
2018-12-02T11:25:58.674Z,112.33
2018-12-02T11:28:27.337Z,114.10
2018-12-02T11:30:56.029Z,111.83
2018-12-02T11:33:24.667Z,115.23
2018-12-02T11:35:53.303Z,115.27
2018-12-02T11:38:21.952Z,113.07
2018-12-02T11:40:50.568Z,116.07
2018-12-02T11:43:19.210Z,112.37
2018-12-02T11:45:47.923Z,122.23
2018-12-02T11:48:16.590Z,112.43
2018-12-02T11:50:45.217Z,110.13
2018-12-02T11:53:13.847Z,107.23
2018-12-02T11:55:42.457Z,105.90
2018-12-02T11:58:11.038Z,108.33
2018-12-02T12:00:40.827Z,103.40
2018-12-02T12:03:09.447Z,107.13
2018-12-02T12:05:38.789Z,104.27
2018-12-02T12:08:09.957Z,109.47
2018-12-02T12:10:38.641Z,107.20
2018-12-02T12:13:07.312Z,103.80
2018-12-02T12:15:36.678Z,105.00
2018-12-02T12:18:05.871Z,111.57
2018-12-02T12:20:43.732Z,101.97
2018-12-02T12:23:14.231Z,107.93
2018-12-02T12:25:42.845Z,112.80
2018-12-02T12:28:11.497Z,113.90
2018-12-02T12:30:40.129Z,112.07
2018-12-02T12:33:10.038Z,115.70
2018-12-02T12:35:43.690Z,112.60
2018-12-02T12:38:12.311Z,114.90
2018-12-02T12:40:41.276Z,117.63
2018-12-02T12:43:12.804Z,114.17
2018-12-02T12:45:41.479Z,119.53
2018-12-02T12:48:10.104Z,117.03
2018-12-02T12:50:38.793Z,121.90
2018-12-02T12:53:07.535Z,120.03
2018-12-02T12:55:36.235Z,128.37
2018-12-02T12:58:05.220Z,109.60
2018-12-02T13:00:33.890Z,115.03
2018-12-02T13:03:02.537Z,109.03
2018-12-02T13:05:31.376Z,111.27
2018-12-02T13:08:00.020Z,111.77
2018-12-02T13:10:28.628Z,110.07
2018-12-02T13:12:57.303Z,112.30
2018-12-02T13:15:26.019Z,112.33
2018-12-02T13:17:58.367Z,109.13
2018-12-02T13:20:32.329Z,108.23
2018-12-02T13:23:01.002Z,110.57
2018-12-02T13:25:29.594Z,109.90
2018-12-02T13:27:58.179Z,109.90
2018-12-02T13:30:26.842Z,112.87
2018-12-02T13:32:55.860Z,109.27
2018-12-02T13:35:25.080Z,111.40
2018-12-02T13:37:53.789Z,105.50
2018-12-02T13:40:23.321Z,110.23
2018-12-02T13:43:00.315Z,104.57
2018-12-02T13:45:30.160Z,101.43
2018-12-02T13:47:59.123Z,103.50
2018-12-02T13:50:27.838Z,102.47
2018-12-02T13:52:57.240Z,103.90
2018-12-02T13:55:27.989Z,112.87
2018-12-02T13:57:56.747Z,110.13
2018-12-02T14:00:26.321Z,114.67
2018-12-02T14:03:08.139Z,110.60
2018-12-02T14:05:38.790Z,115.27
2018-12-02T14:08:07.493Z,110.80
2018-12-02T14:10:36.303Z,111.07
2018-12-02T14:13:08.198Z,104.77
2018-12-02T14:15:47.439Z,106.63
2018-12-02T14:18:41.459Z,108.43
2018-12-02T14:21:10.905Z,109.37
2018-12-02T14:23:41.120Z,108.43
2018-12-02T14:26:13.244Z,107.27
2018-12-02T14:28:49.738Z,101.33
2018-12-02T14:31:19.355Z,98.13
2018-12-02T14:33:48.255Z,101.50
2018-12-02T14:36:16.917Z,97.43
2018-12-02T14:38:45.763Z,95.83
2018-12-02T14:41:14.381Z,99.97
2018-12-02T14:43:43.013Z,96.40
2018-12-02T14:46:11.662Z,97.03
2018-12-02T14:48:40.343Z,97.93
2018-12-02T14:51:08.990Z,96.03
2018-12-02T14:53:37.675Z,96.80
2018-12-02T14:56:06.687Z,89.77
2018-12-02T14:58:35.301Z,94.13
2018-12-02T15:01:04.277Z,93.53
2018-12-02T15:03:32.896Z,95.23
2018-12-02T15:06:01.478Z,94.80
2018-12-02T15:08:30.207Z,93.70
2018-12-02T15:10:58.867Z,91.43
2018-12-02T15:13:27.514Z,90.30
2018-12-02T15:15:56.238Z,101.93
2018-12-02T15:18:25.063Z,100.67
2018-12-02T15:20:53.731Z,98.20
2018-12-02T15:23:22.340Z,98.97
2018-12-02T15:25:51.112Z,101.57
2018-12-02T15:28:19.711Z,97.30
2018-12-02T15:30:48.349Z,94.87
2018-12-02T15:33:17.106Z,98.47
2018-12-02T15:35:45.751Z,107.83
2018-12-02T15:38:14.537Z,105.30
2018-12-02T15:40:43.279Z,102.07
2018-12-02T15:43:11.945Z,103.30
2018-12-02T15:45:40.608Z,122.57
2018-12-02T15:48:09.613Z,115.33
2018-12-02T15:50:38.251Z,106.37
2018-12-02T15:53:07.007Z,108.23
2018-12-02T15:55:36.265Z,110.47
2018-12-02T15:58:08.025Z,107.90
2018-12-02T16:00:38.133Z,106.60
2018-12-02T16:03:07.354Z,108.17
2018-12-02T16:05:35.992Z,111.37
2018-12-02T16:08:04.657Z,110.70
2018-12-02T16:10:33.589Z,107.40
2018-12-02T16:13:02.245Z,106.33
2018-12-02T16:15:32.494Z,108.23
2018-12-02T16:18:02.023Z,106.63
2018-12-02T16:20:53.002Z,99.43
2018-12-02T16:23:23.838Z,139.20
2018-12-02T16:25:52.662Z,133.00
2018-12-02T16:28:21.819Z,130.87
2018-12-02T16:30:52.855Z,127.23
2018-12-02T16:33:21.580Z,152.83
2018-12-02T16:35:50.535Z,156.07
2018-12-02T16:38:19.283Z,168.57
2018-12-02T16:40:47.956Z,165.90
2018-12-02T16:43:16.904Z,215.27
2018-12-02T16:45:45.421Z,228.10
2018-12-02T16:48:14.082Z,238.70
2018-12-02T16:50:46.124Z,470.47
2018-12-02T16:53:23.088Z,534.73
2018-12-02T16:55:59.026Z,572.80
2018-12-02T16:58:34.224Z,489.67
2018-12-02T17:01:09.871Z,374.67
2018-12-02T17:03:46.817Z,253.47
2018-12-02T17:06:15.619Z,292.87
2018-12-02T17:08:44.272Z,265.87
2018-12-02T17:11:13.348Z,208.80
2018-12-02T17:13:41.973Z,228.27
2018-12-02T17:16:10.663Z,231.63
2018-12-02T17:18:39.400Z,277.30
2018-12-02T17:21:08.079Z,310.10
2018-12-02T17:23:36.758Z,274.43
2018-12-02T17:26:05.646Z,253.57
2018-12-02T17:28:34.275Z,247.17
2018-12-02T17:31:14.730Z,254.90
2018-12-02T17:33:43.397Z,260.53
2018-12-02T17:36:12.068Z,247.83
2018-12-02T17:38:40.751Z,248.50
2018-12-02T17:41:11.011Z,215.40
2018-12-02T17:43:39.728Z,265.57
2018-12-02T17:46:09.144Z,261.17
2018-12-02T17:48:37.884Z,261.93
2018-12-02T17:51:07.735Z,270.30
2018-12-02T17:53:37.471Z,303.87
2018-12-02T17:56:06.911Z,300.93
2018-12-02T17:58:35.543Z,283.33
2018-12-02T18:01:04.393Z,299.60
2018-12-02T18:03:34.393Z,312.07
2018-12-02T18:06:03.024Z,329.63
2018-12-02T18:08:31.647Z,323.37
2018-12-02T18:11:00.277Z,293.60
2018-12-02T18:13:28.955Z,337.30
2018-12-02T18:15:57.574Z,345.20
2018-12-02T18:18:26.973Z,337.03
2018-12-02T18:20:55.929Z,338.43
2018-12-02T18:23:24.578Z,349.47
2018-12-02T18:25:53.244Z,354.73
2018-12-02T18:28:22.117Z,383.80
2018-12-02T18:30:51.030Z,397.43
2018-12-02T18:33:20.673Z,388.57
2018-12-02T18:35:59.237Z,417.57
2018-12-02T18:38:29.372Z,404.40
2018-12-02T18:41:16.138Z,380.13
2018-12-02T18:43:46.628Z,416.60
2018-12-02T18:46:16.185Z,409.20
2018-12-02T18:48:44.965Z,382.83
2018-12-02T18:51:14.111Z,367.53
2018-12-02T18:53:42.930Z,345.93
2018-12-02T18:56:16.379Z,334.30
2018-12-02T18:58:40.358Z,282.93
2018-12-02T19:01:09.320Z,321.47
2018-12-02T19:03:37.976Z,327.03
2018-12-02T19:06:07.299Z,320.63
2018-12-02T19:08:35.969Z,308.00
2018-12-02T19:11:04.764Z,334.07
2018-12-02T19:13:33.655Z,331.67
2018-12-02T19:16:02.346Z,328.13
2018-12-02T19:18:31.120Z,331.03
2018-12-02T19:21:01.826Z,316.53
2018-12-02T19:23:32.664Z,283.50
2018-12-02T19:26:01.501Z,258.07
2018-12-02T19:28:30.249Z,268.60
2018-12-02T19:30:59.527Z,245.30
2018-12-02T19:33:28.229Z,275.83
2018-12-02T19:36:01.216Z,260.43
2018-12-02T19:38:29.856Z,248.40
2018-12-02T19:40:58.517Z,244.17
2018-12-02T19:43:27.165Z,239.33
2018-12-02T19:45:55.826Z,266.43
2018-12-02T19:48:24.459Z,212.80
2018-12-02T19:50:53.353Z,213.73
2018-12-02T19:53:31.865Z,212.40
2018-12-02T19:56:01.437Z,235.93
2018-12-02T19:58:30.084Z,238.53
2018-12-02T20:00:58.705Z,214.97
2018-12-02T20:03:27.417Z,200.77
2018-12-02T20:05:56.075Z,239.27
2018-12-02T20:08:27.258Z,256.67
2018-12-02T20:10:56.042Z,232.53
2018-12-02T20:13:24.895Z,229.07
2018-12-02T20:15:59.090Z,231.53
2018-12-02T20:18:36.499Z,236.77
2018-12-02T20:21:05.838Z,236.97
2018-12-02T20:23:39.760Z,258.40
2018-12-02T20:26:08.990Z,242.23
2018-12-02T20:28:40.654Z,229.53
2018-12-02T20:31:13.808Z,235.27
2018-12-02T20:33:42.417Z,229.80
2018-12-02T20:36:12.134Z,232.73
2018-12-02T20:38:40.807Z,232.20
2018-12-02T20:41:09.588Z,233.73
2018-12-02T20:43:38.248Z,230.17
2018-12-02T20:46:06.958Z,232.17
2018-12-02T20:48:35.940Z,231.50
2018-12-02T20:51:04.679Z,227.87
2018-12-02T20:53:33.394Z,226.27
2018-12-02T20:56:02.120Z,253.47
2018-12-02T20:58:31.101Z,254.93
2018-12-02T21:00:59.792Z,252.03
2018-12-02T21:03:30.358Z,249.97
2018-12-02T21:08:41.806Z,252.33
2018-12-02T21:11:10.543Z,245.00
2018-12-02T21:13:39.327Z,246.17
2018-12-02T21:16:08.035Z,254.03
2018-12-02T21:18:36.763Z,253.50
2018-12-02T21:21:05.575Z,256.30
2018-12-02T21:23:34.323Z,248.50
2018-12-02T21:26:03.518Z,243.47
2018-12-02T21:28:32.187Z,246.20
2018-12-02T21:31:01.170Z,242.50
2018-12-02T21:33:29.855Z,242.20
2018-12-02T21:35:58.493Z,269.97
2018-12-02T21:38:27.330Z,270.57
2018-12-02T21:40:56.099Z,268.63
2018-12-02T21:43:24.729Z,274.07
2018-12-02T21:45:53.474Z,268.20
2018-12-02T21:48:22.477Z,264.93
2018-12-02T21:50:53.039Z,276.13
2018-12-02T21:53:21.697Z,256.53
2018-12-02T21:55:50.276Z,252.67
2018-12-02T21:58:18.921Z,256.53
2018-12-02T22:00:52.788Z,248.00
2018-12-02T22:03:21.458Z,271.07
2018-12-02T22:05:50.573Z,282.10
2018-12-02T22:08:19.634Z,281.80
2018-12-02T22:10:48.709Z,257.83
2018-12-02T22:13:17.351Z,261.93
2018-12-02T22:15:46.002Z,266.37
2018-12-02T22:18:14.654Z,267.63
2018-12-02T22:20:43.260Z,261.70
2018-12-02T22:23:11.929Z,262.73
2018-12-02T22:25:40.613Z,260.33
2018-12-02T22:28:09.824Z,260.63
2018-12-02T22:30:38.535Z,285.80
2018-12-02T22:33:07.619Z,268.17
2018-12-02T22:35:36.669Z,264.72
2018-12-02T22:38:05.462Z,258.50
2018-12-02T22:40:34.316Z,277.55
2018-12-02T22:43:02.955Z,271.90
2018-12-02T22:45:31.605Z,274.63
2018-12-02T22:48:00.271Z,272.50
2018-12-02T22:50:29.667Z,268.23
2018-12-02T22:52:59.442Z,271.50
2018-12-02T22:55:28.223Z,270.00
2018-12-02T22:57:56.941Z,269.27
2018-12-02T23:00:33.045Z,265.10
2018-12-02T23:03:02.774Z,258.27
2018-12-02T23:05:31.528Z,275.85
2018-12-02T23:08:00.301Z,268.05
2018-12-02T23:10:29.076Z,270.50
2018-12-02T23:12:57.786Z,272.42
2018-12-02T23:15:26.526Z,277.53
2018-12-02T23:17:55.267Z,269.05
2018-12-02T23:20:24.429Z,275.00
2018-12-02T23:22:53.126Z,275.32
2018-12-02T23:25:21.803Z,270.97
2018-12-02T23:27:50.501Z,276.93
2018-12-02T23:30:21.987Z,308.57
2018-12-02T23:32:51.056Z,288.55
2018-12-02T23:35:19.801Z,284.30
2018-12-02T23:37:48.493Z,290.02
2018-12-02T23:40:18.168Z,310.85
2018-12-02T23:42:46.899Z,336.00
2018-12-02T23:45:16.315Z,332.32
2018-12-02T23:47:45.049Z,339.25
2018-12-02T23:50:15.926Z,345.02
2018-12-02T23:52:44.592Z,334.15
2018-12-02T23:55:15.925Z,328.23
2018-12-02T23:57:44.674Z,328.15
